sensor_id;sensor_type;location;lat;lon;timestamp;pressure;altitude;pressure_sealevel;temperature;humidity
59487;BME280;45298;54.918;73.504;2023-06-22T00:00:42;98670.06;;;8.84;76.99
59487;BME280;45298;54.918;73.504;2023-06-22T00:03:12;98667.66;;;8.81;77.02
59487;BME280;45298;54.918;73.504;2023-06-22T00:05:41;98680.03;;;8.91;77.17
59487;BME280;45298;54.918;73.504;2023-06-22T00:08:09;98659.22;;;8.75;77.60
59487;BME280;45298;54.918;73.504;2023-06-22T00:10:38;98660.81;;;8.78;76.98
59487;BME280;45298;54.918;73.504;2023-06-22T00:13:08;98661.66;;;8.90;77.52
59487;BME280;45298;54.918;73.504;2023-06-22T00:15:39;98699.41;;;9.03;77.82
59487;BME280;45298;54.918;73.504;2023-06-22T00:18:09;98680.03;;;9.03;78.02
59487;BME280;45298;54.918;73.504;2023-06-22T00:20:39;98668.75;;;9.01;77.80
59487;BME280;45298;54.918;73.504;2023-06-22T00:23:08;98651.81;;;8.92;77.90
59487;BME280;45298;54.918;73.504;2023-06-22T00:25:39;98684.63;;;9.12;77.37
59487;BME280;45298;54.918;73.504;2023-06-22T00:28:09;98672.59;;;9.08;77.19
59487;BME280;45298;54.918;73.504;2023-06-22T00:30:38;98658.28;;;8.99;77.81
59487;BME280;45298;54.918;73.504;2023-06-22T00:33:06;98691.97;;;9.20;77.41
59487;BME280;45298;54.918;73.504;2023-06-22T00:35:36;98687.13;;;9.14;77.37
59487;BME280;45298;54.918;73.504;2023-06-22T00:38:08;98683.53;;;9.15;77.31
59487;BME280;45298;54.918;73.504;2023-06-22T00:40:37;98676.31;;;9.17;76.89
59487;BME280;45298;54.918;73.504;2023-06-22T00:43:06;98679.94;;;9.16;77.41
59487;BME280;45298;54.918;73.504;2023-06-22T00:45:35;98674.63;;;9.16;77.10
59487;BME280;45298;54.918;73.504;2023-06-22T00:48:05;98699.41;;;9.37;76.92
59487;BME280;45298;54.918;73.504;2023-06-22T00:50:34;98696.91;;;9.36;76.95
59487;BME280;45298;54.918;73.504;2023-06-22T00:53:06;98698.81;;;9.34;76.81
59487;BME280;45298;54.918;73.504;2023-06-22T00:55:42;98703.63;;;9.40;76.73
59487;BME280;45298;54.918;73.504;2023-06-22T00:58:15;98713.63;;;9.48;76.79
59487;BME280;45298;54.918;73.504;2023-06-22T01:00:44;98677.16;;;9.29;76.43
59487;BME280;45298;54.918;73.504;2023-06-22T01:03:13;98717.34;;;9.45;76.16
59487;BME280;45298;54.918;73.504;2023-06-22T01:05:42;98716.25;;;9.48;76.13
59487;BME280;45298;54.918;73.504;2023-06-22T01:08:36;98723.84;;;9.52;76.34
59487;BME280;45298;54.918;73.504;2023-06-22T01:11:21;98733.69;;;9.50;76.02
59487;BME280;45298;54.918;73.504;2023-06-22T01:16:56;98722.41;;;9.37;76.01
59487;BME280;45298;54.918;73.504;2023-06-22T01:19:35;98725.63;;;9.41;75.89
59487;BME280;45298;54.918;73.504;2023-06-22T01:22:07;98744.03;;;9.42;75.58
59487;BME280;45298;54.918;73.504;2023-06-22T01:24:50;98752.34;;;9.37;75.40
59487;BME280;45298;54.918;73.504;2023-06-22T01:27:53;98734.78;;;9.25;75.68
59487;BME280;45298;54.918;73.504;2023-06-22T01:30:29;98732.63;;;9.30;75.38
59487;BME280;45298;54.918;73.504;2023-06-22T01:33:04;98742.25;;;9.31;76.19
59487;BME280;45298;54.918;73.504;2023-06-22T01:35:38;98755.25;;;9.46;75.76
59487;BME280;45298;54.918;73.504;2023-06-22T01:38:12;98763.66;;;9.51;76.07
59487;BME280;45298;54.918;73.504;2023-06-22T01:40:42;98731.88;;;9.40;75.90
59487;BME280;45298;54.918;73.504;2023-06-22T01:43:11;98767.28;;;9.50;75.97
59487;BME280;45298;54.918;73.504;2023-06-22T01:45:40;98780.97;;;9.55;75.44
59487;BME280;45298;54.918;73.504;2023-06-22T01:48:09;98755.72;;;9.51;75.97
59487;BME280;45298;54.918;73.504;2023-06-22T01:50:38;98760.16;;;9.50;75.67
59487;BME280;45298;54.918;73.504;2023-06-22T01:53:07;98777.13;;;9.59;75.69
59487;BME280;45298;54.918;73.504;2023-06-22T01:55:36;98776.16;;;9.60;75.96
59487;BME280;45298;54.918;73.504;2023-06-22T01:58:05;98761.72;;;9.53;75.73
59487;BME280;45298;54.918;73.504;2023-06-22T02:00:37;98778.81;;;9.60;75.58
59487;BME280;45298;54.918;73.504;2023-06-22T02:03:18;98783.16;;;9.61;75.80
59487;BME280;45298;54.918;73.504;2023-06-22T02:06:01;98803.13;;;9.65;75.37
59487;BME280;45298;54.918;73.504;2023-06-22T02:08:40;98798.78;;;9.64;75.62
59487;BME280;45298;54.918;73.504;2023-06-22T02:11:11;98804.81;;;9.66;75.55
59487;BME280;45298;54.918;73.504;2023-06-22T02:13:44;98781.31;;;9.62;75.83
59487;BME280;45298;54.918;73.504;2023-06-22T02:16:14;98805.53;;;9.68;75.62
59487;BME280;45298;54.918;73.504;2023-06-22T02:18:48;98787.13;;;9.56;75.63
59487;BME280;45298;54.918;73.504;2023-06-22T02:21:21;98800.97;;;9.71;75.25
59487;BME280;45298;54.918;73.504;2023-06-22T02:23:51;98786.53;;;9.63;75.49
59487;BME280;45298;54.918;73.504;2023-06-22T02:26:20;98805.19;;;9.73;75.68
59487;BME280;45298;54.918;73.504;2023-06-22T02:28:49;98822.97;;;9.71;75.59
59487;BME280;45298;54.918;73.504;2023-06-22T02:31:18;98815.41;;;9.66;75.76
59487;BME280;45298;54.918;73.504;2023-06-22T02:33:48;98826.22;;;9.75;75.44
59487;BME280;45298;54.918;73.504;2023-06-22T02:36:19;98823.56;;;9.75;75.34
59487;BME280;45298;54.918;73.504;2023-06-22T02:38:53;98795.16;;;9.54;75.63
59487;BME280;45298;54.918;73.504;2023-06-22T02:41:22;98835.84;;;9.76;75.38
59487;BME280;45298;54.918;73.504;2023-06-22T02:43:51;98830.09;;;9.71;75.59
59487;BME280;45298;54.918;73.504;2023-06-22T02:46:19;98815.28;;;9.57;75.99
59487;BME280;45298;54.918;73.504;2023-06-22T02:48:49;98812.97;;;9.52;75.34
59487;BME280;45298;54.918;73.504;2023-06-22T02:51:18;98733.06;;;9.01;75.67
59487;BME280;45298;54.918;73.504;2023-06-22T02:53:47;98770.88;;;9.26;76.66
59487;BME280;45298;54.918;73.504;2023-06-22T02:56:17;98822.84;;;9.61;75.81
59487;BME280;45298;54.918;73.504;2023-06-22T02:58:46;98834.91;;;9.65;76.15
59487;BME280;45298;54.918;73.504;2023-06-22T03:01:15;98828.88;;;9.63;75.85
59487;BME280;45298;54.918;73.504;2023-06-22T03:03:46;98844.03;;;9.73;76.17
59487;BME280;45298;54.918;73.504;2023-06-22T03:06:16;98839.22;;;9.78;76.34
59487;BME280;45298;54.918;73.504;2023-06-22T03:08:51;98851.63;;;9.77;76.55
59487;BME280;45298;54.918;73.504;2023-06-22T03:11:20;98833.44;;;9.73;76.92
59487;BME280;45298;54.918;73.504;2023-06-22T03:13:49;98848.84;;;9.79;77.29
59487;BME280;45298;54.918;73.504;2023-06-22T03:16:18;98836.34;;;9.70;77.72
59487;BME280;45298;54.918;73.504;2023-06-22T03:18:47;98833.22;;;9.76;78.23
59487;BME280;45298;54.918;73.504;2023-06-22T03:21:16;98860.16;;;9.92;78.45
59487;BME280;45298;54.918;73.504;2023-06-22T03:23:45;98841.16;;;9.98;78.82
59487;BME280;45298;54.918;73.504;2023-06-22T03:26:17;98835.13;;;9.96;78.31
59487;BME280;45298;54.918;73.504;2023-06-22T03:28:46;98852.09;;;10.05;78.11
59487;BME280;45298;54.918;73.504;2023-06-22T03:31:16;98825.84;;;10.02;77.64
59487;BME280;45298;54.918;73.504;2023-06-22T03:33:45;98858.72;;;10.22;77.37
59487;BME280;45298;54.918;73.504;2023-06-22T03:36:15;98791.09;;;9.84;77.17
59487;BME280;45298;54.918;73.504;2023-06-22T03:38:48;98850.53;;;10.25;76.91
59487;BME280;45298;54.918;73.504;2023-06-22T03:41:17;98839.44;;;10.20;76.36
59487;BME280;45298;54.918;73.504;2023-06-22T03:43:48;98856.91;;;10.34;76.84
59487;BME280;45298;54.918;73.504;2023-06-22T03:46:17;98835.69;;;10.23;76.35
59487;BME280;45298;54.918;73.504;2023-06-22T03:48:46;98849.06;;;10.33;75.78
59487;BME280;45298;54.918;73.504;2023-06-22T03:51:14;98868.31;;;10.35;75.88
59487;BME280;45298;54.918;73.504;2023-06-22T03:53:43;98853.03;;;10.27;75.38
59487;BME280;45298;54.918;73.504;2023-06-22T03:56:12;98849.47;;;10.39;75.19
59487;BME280;45298;54.918;73.504;2023-06-22T03:58:41;98831.75;;;10.28;75.49
59487;BME280;45298;54.918;73.504;2023-06-22T04:01:13;98864.13;;;10.55;74.91
59487;BME280;45298;54.918;73.504;2023-06-22T04:03:42;98865.19;;;10.52;75.18
59487;BME280;45298;54.918;73.504;2023-06-22T04:06:11;98804.53;;;10.15;74.92
59487;BME280;45298;54.918;73.504;2023-06-22T04:08:40;98859.88;;;10.52;75.12
59487;BME280;45298;54.918;73.504;2023-06-22T04:11:09;98866.41;;;10.60;74.89
59487;BME280;45298;54.918;73.504;2023-06-22T04:13:38;98859.03;;;10.63;75.66
59487;BME280;45298;54.918;73.504;2023-06-22T04:16:07;98873.56;;;10.80;74.90
59487;BME280;45298;54.918;73.504;2023-06-22T04:18:36;98884.09;;;11.03;75.12
59487;BME280;45298;54.918;73.504;2023-06-22T04:21:05;98891.28;;;11.12;74.41
59487;BME280;45298;54.918;73.504;2023-06-22T04:23:34;98897.28;;;11.26;74.09
59487;BME280;45298;54.918;73.504;2023-06-22T04:26:03;98893.59;;;11.38;73.00
59487;BME280;45298;54.918;73.504;2023-06-22T04:28:35;98888.59;;;11.45;73.67
59487;BME280;45298;54.918;73.504;2023-06-22T04:31:04;98832.00;;;11.23;73.22
59487;BME280;45298;54.918;73.504;2023-06-22T04:33:33;98880.63;;;11.66;72.32
59487;BME280;45298;54.918;73.504;2023-06-22T04:36:02;98888.88;;;11.94;71.87
59487;BME280;45298;54.918;73.504;2023-06-22T04:38:32;98880.94;;;12.25;71.02
59487;BME280;45298;54.918;73.504;2023-06-22T04:41:02;98875.09;;;12.51;72.06
59487;BME280;45298;54.918;73.504;2023-06-22T04:43:34;98873.03;;;12.54;69.26
59487;BME280;45298;54.918;73.504;2023-06-22T04:46:03;98869.03;;;12.29;68.79
59487;BME280;45298;54.918;73.504;2023-06-22T04:48:32;98873.00;;;12.04;69.02
59487;BME280;45298;54.918;73.504;2023-06-22T04:51:02;98900.06;;;11.98;69.27
59487;BME280;45298;54.918;73.504;2023-06-22T04:53:33;98896.47;;;11.77;69.88
59487;BME280;45298;54.918;73.504;2023-06-22T04:56:02;98899.03;;;11.58;69.94
59487;BME280;45298;54.918;73.504;2023-06-22T04:58:32;98895.72;;;11.44;70.73
59487;BME280;45298;54.918;73.504;2023-06-22T05:01:01;98918.78;;;11.44;71.44
59487;BME280;45298;54.918;73.504;2023-06-22T05:03:31;98906.22;;;11.25;71.60
59487;BME280;45298;54.918;73.504;2023-06-22T05:06:01;98927.38;;;11.36;72.04
59487;BME280;45298;54.918;73.504;2023-06-22T05:08:30;98913.88;;;11.28;72.21
59487;BME280;45298;54.918;73.504;2023-06-22T05:10:58;98919.66;;;11.33;73.99
59487;BME280;45298;54.918;73.504;2023-06-22T05:13:33;98922.97;;;11.25;74.62
59487;BME280;45298;54.918;73.504;2023-06-22T05:16:01;98952.41;;;11.22;76.23
59487;BME280;45298;54.918;73.504;2023-06-22T05:18:31;98948.50;;;11.05;76.92
59487;BME280;45298;54.918;73.504;2023-06-22T05:21:02;98928.78;;;10.75;77.44
59487;BME280;45298;54.918;73.504;2023-06-22T05:23:31;98944.22;;;10.81;78.73
59487;BME280;45298;54.918;73.504;2023-06-22T05:26:00;98953.00;;;10.82;79.01
59487;BME280;45298;54.918;73.504;2023-06-22T05:28:32;98934.69;;;10.79;79.77
59487;BME280;45298;54.918;73.504;2023-06-22T05:31:02;98934.41;;;10.93;80.34
59487;BME280;45298;54.918;73.504;2023-06-22T05:33:31;98945.31;;;11.11;80.64
59487;BME280;45298;54.918;73.504;2023-06-22T05:36:00;98963.44;;;11.39;80.76
59487;BME280;45298;54.918;73.504;2023-06-22T05:38:29;98946.19;;;11.44;81.40
59487;BME280;45298;54.918;73.504;2023-06-22T05:40:58;98958.16;;;11.60;80.54
59487;BME280;45298;54.918;73.504;2023-06-22T05:43:27;98968.91;;;11.58;80.25
59487;BME280;45298;54.918;73.504;2023-06-22T05:45:56;98965.19;;;11.49;79.99
59487;BME280;45298;54.918;73.504;2023-06-22T05:48:25;98964.13;;;11.52;79.84
59487;BME280;45298;54.918;73.504;2023-06-22T05:50:54;98958.47;;;11.45;80.53
59487;BME280;45298;54.918;73.504;2023-06-22T05:53:23;98958.47;;;11.45;79.50
59487;BME280;45298;54.918;73.504;2023-06-22T05:55:52;98965.59;;;11.45;79.48
59487;BME280;45298;54.918;73.504;2023-06-22T05:58:22;98958.00;;;11.40;80.58
59487;BME280;45298;54.918;73.504;2023-06-22T06:00:51;98963.78;;;11.45;80.39
59487;BME280;45298;54.918;73.504;2023-06-22T06:03:20;98954.38;;;11.41;79.84
59487;BME280;45298;54.918;73.504;2023-06-22T06:05:49;98966.38;;;11.57;79.64
59487;BME280;45298;54.918;73.504;2023-06-22T06:08:18;98971.44;;;11.60;79.90
59487;BME280;45298;54.918;73.504;2023-06-22T06:10:48;98930.50;;;11.41;79.22
59487;BME280;45298;54.918;73.504;2023-06-22T06:13:17;98972.09;;;11.73;79.82
59487;BME280;45298;54.918;73.504;2023-06-22T06:15:46;98979.03;;;11.86;79.17
59487;BME280;45298;54.918;73.504;2023-06-22T06:18:16;98976.81;;;11.91;78.98
59487;BME280;45298;54.918;73.504;2023-06-22T06:20:46;98980.84;;;12.06;77.98
59487;BME280;45298;54.918;73.504;2023-06-22T06:23:15;98986.63;;;12.12;76.76
59487;BME280;45298;54.918;73.504;2023-06-22T06:25:43;98990.25;;;12.11;76.15
59487;BME280;45298;54.918;73.504;2023-06-22T06:28:12;98940.78;;;11.98;75.19
59487;BME280;45298;54.918;73.504;2023-06-22T06:30:41;98982.91;;;12.55;76.01
59487;BME280;45298;54.918;73.504;2023-06-22T06:33:10;98979.06;;;12.79;74.70
59487;BME280;45298;54.918;73.504;2023-06-22T06:35:39;98964.13;;;12.97;74.75
59487;BME280;45298;54.918;73.504;2023-06-22T06:38:08;98975.50;;;13.19;72.59
59487;BME280;45298;54.918;73.504;2023-06-22T06:40:37;98980.00;;;13.28;72.43
59487;BME280;45298;54.918;73.504;2023-06-22T06:43:06;99000.63;;;13.46;73.26
59487;BME280;45298;54.918;73.504;2023-06-22T06:45:35;98960.56;;;13.48;71.30
59487;BME280;45298;54.918;73.504;2023-06-22T06:48:04;98990.13;;;13.84;71.84
59487;BME280;45298;54.918;73.504;2023-06-22T06:50:33;98993.59;;;13.84;69.44
59487;BME280;45298;54.918;73.504;2023-06-22T06:53:02;98976.66;;;13.46;68.91
59487;BME280;45298;54.918;73.504;2023-06-22T06:55:31;98987.84;;;13.20;68.95
59487;BME280;45298;54.918;73.504;2023-06-22T06:58:02;98989.06;;;12.96;69.93
59487;BME280;45298;54.918;73.504;2023-06-22T07:00:32;98986.06;;;12.70;69.46
59487;BME280;45298;54.918;73.504;2023-06-22T07:03:01;99000.34;;;12.69;69.77
59487;BME280;45298;54.918;73.504;2023-06-22T07:05:30;99003.06;;;12.58;69.39
59487;BME280;45298;54.918;73.504;2023-06-22T07:07:59;99000.50;;;12.46;70.42
59487;BME280;45298;54.918;73.504;2023-06-22T07:10:29;99017.63;;;12.53;69.80
59487;BME280;45298;54.918;73.504;2023-06-22T07:12:58;99035.88;;;12.68;70.07
59487;BME280;45298;54.918;73.504;2023-06-22T07:15:27;99016.00;;;12.62;69.70
59487;BME280;45298;54.918;73.504;2023-06-22T07:17:56;99011.19;;;12.56;68.60
59487;BME280;45298;54.918;73.504;2023-06-22T07:20:25;99041.28;;;12.88;69.88
59487;BME280;45298;54.918;73.504;2023-06-22T07:22:54;99042.34;;;13.16;70.28
59487;BME280;45298;54.918;73.504;2023-06-22T07:25:23;99033.53;;;13.35;68.64
59487;BME280;45298;54.918;73.504;2023-06-22T07:28:05;99041.53;;;13.35;66.75
59487;BME280;45298;54.918;73.504;2023-06-22T07:30:35;98965.78;;;12.89;66.59
59487;BME280;45298;54.918;73.504;2023-06-22T07:33:03;99019.03;;;12.98;66.27
59487;BME280;45298;54.918;73.504;2023-06-22T07:35:36;99036.44;;;13.03;67.41
59487;BME280;45298;54.918;73.504;2023-06-22T07:38:06;99056.09;;;13.21;66.18
59487;BME280;45298;54.918;73.504;2023-06-22T07:40:35;99035.91;;;13.28;66.72
59487;BME280;45298;54.918;73.504;2023-06-22T07:43:04;99035.00;;;13.49;66.24
59487;BME280;45298;54.918;73.504;2023-06-22T07:45:33;99037.22;;;13.73;65.68
59487;BME280;45298;54.918;73.504;2023-06-22T07:48:03;99052.66;;;13.99;64.59
59487;BME280;45298;54.918;73.504;2023-06-22T07:50:32;99028.25;;;13.94;64.12
59487;BME280;45298;54.918;73.504;2023-06-22T07:53:01;99032.28;;;14.08;63.74
59487;BME280;45298;54.918;73.504;2023-06-22T07:55:30;99031.88;;;14.03;63.38
59487;BME280;45298;54.918;73.504;2023-06-22T07:57:59;99049.41;;;14.25;62.80
59487;BME280;45298;54.918;73.504;2023-06-22T08:00:28;99068.84;;;14.45;64.57
59487;BME280;45298;54.918;73.504;2023-06-22T08:02:57;99073.06;;;14.58;62.22
59487;BME280;45298;54.918;73.504;2023-06-22T09:36:32;99134.53;;;14.66;65.65
59487;BME280;45298;54.918;73.504;2023-06-22T09:39:01;99138.78;;;14.59;64.54
59487;BME280;45298;54.918;73.504;2023-06-22T09:41:34;99120.94;;;14.59;65.56
59487;BME280;45298;54.918;73.504;2023-06-22T09:44:03;99143.78;;;14.81;64.51
59487;BME280;45298;54.918;73.504;2023-06-22T09:46:32;99133.13;;;14.81;62.58
59487;BME280;45298;54.918;73.504;2023-06-22T09:49:01;99134.53;;;14.66;62.50
59487;BME280;45298;54.918;73.504;2023-06-22T09:51:30;99076.78;;;14.17;63.22
59487;BME280;45298;54.918;73.504;2023-06-22T09:53:58;99133.88;;;14.25;63.23
59487;BME280;45298;54.918;73.504;2023-06-22T09:56:27;99124.22;;;14.04;63.62
59487;BME280;45298;54.918;73.504;2023-06-22T09:58:58;99134.88;;;14.04;64.43
59487;BME280;45298;54.918;73.504;2023-06-22T10:01:47;99114.53;;;13.93;64.09
59487;BME280;45298;54.918;73.504;2023-06-22T10:04:26;99135.56;;;14.26;64.88
59487;BME280;45298;54.918;73.504;2023-06-22T10:06:55;99150.03;;;14.33;64.22
59487;BME280;45298;54.918;73.504;2023-06-22T10:09:25;99126.72;;;14.45;64.02
59487;BME280;45298;54.918;73.504;2023-06-22T10:11:54;99150.28;;;14.79;63.62
59487;BME280;45298;54.918;73.504;2023-06-22T10:14:23;99156.25;;;15.01;64.19
59487;BME280;45298;54.918;73.504;2023-06-22T10:16:53;99130.97;;;14.95;63.29
59487;BME280;45298;54.918;73.504;2023-06-22T10:19:26;99140.34;;;15.09;63.28
59487;BME280;45298;54.918;73.504;2023-06-22T10:21:55;99150.00;;;15.20;63.28
59487;BME280;45298;54.918;73.504;2023-06-22T10:24:24;99144.72;;;15.38;62.50
59487;BME280;45298;54.918;73.504;2023-06-22T10:26:53;99128.22;;;15.43;62.11
59487;BME280;45298;54.918;73.504;2023-06-22T10:29:22;99147.50;;;15.64;62.63
59487;BME280;45298;54.918;73.504;2023-06-22T10:31:54;99138.03;;;15.70;62.32
59487;BME280;45298;54.918;73.504;2023-06-22T10:34:22;99155.41;;;15.84;61.81
59487;BME280;45298;54.918;73.504;2023-06-22T10:36:52;99173.75;;;15.79;60.94
59487;BME280;45298;54.918;73.504;2023-06-22T10:39:21;99171.72;;;15.63;61.20
59487;BME280;45298;54.918;73.504;2023-06-22T10:41:51;99155.09;;;15.41;60.85
59487;BME280;45298;54.918;73.504;2023-06-22T10:44:20;99153.50;;;15.20;60.96
59487;BME280;45298;54.918;73.504;2023-06-22T10:46:51;99155.63;;;15.17;61.95
59487;BME280;45298;54.918;73.504;2023-06-22T10:49:21;99170.81;;;15.16;62.13
59487;BME280;45298;54.918;73.504;2023-06-22T10:51:51;99167.28;;;15.25;62.45
59487;BME280;45298;54.918;73.504;2023-06-22T10:54:19;99141.59;;;15.15;62.23
59487;BME280;45298;54.918;73.504;2023-06-22T10:56:48;99154.28;;;15.31;60.88
59487;BME280;45298;54.918;73.504;2023-06-22T10:59:19;99165.94;;;15.39;61.19
59487;BME280;45298;54.918;73.504;2023-06-22T11:01:49;99141.69;;;15.23;61.97
59487;BME280;45298;54.918;73.504;2023-06-22T11:04:18;99171.97;;;15.41;61.31
59487;BME280;45298;54.918;73.504;2023-06-22T11:06:48;99177.00;;;15.45;60.23
59487;BME280;45298;54.918;73.504;2023-06-22T11:09:18;99153.16;;;15.33;60.08
59487;BME280;45298;54.918;73.504;2023-06-22T11:11:56;99164.88;;;15.50;60.23
59487;BME280;45298;54.918;73.504;2023-06-22T11:14:27;99174.53;;;15.89;59.00
59487;BME280;45298;54.918;73.504;2023-06-22T11:16:57;99146.28;;;15.59;58.29
59487;BME280;45298;54.918;73.504;2023-06-22T11:19:27;99173.47;;;15.54;58.33
59487;BME280;45298;54.918;73.504;2023-06-22T11:21:55;99183.75;;;15.49;58.06
59487;BME280;45298;54.918;73.504;2023-06-22T11:24:25;99162.72;;;15.36;58.32
59487;BME280;45298;54.918;73.504;2023-06-22T11:26:54;99155.06;;;15.51;58.26
59487;BME280;45298;54.918;73.504;2023-06-22T11:29:26;99172.97;;;15.68;57.59
59487;BME280;45298;54.918;73.504;2023-06-22T11:32:15;99169.00;;;15.73;57.39
59487;BME280;45298;54.918;73.504;2023-06-22T11:34:44;99182.06;;;15.76;57.59
59487;BME280;45298;54.918;73.504;2023-06-22T11:37:15;99186.66;;;15.83;56.94
59487;BME280;45298;54.918;73.504;2023-06-22T11:39:44;99200.53;;;15.69;57.48
59487;BME280;45298;54.918;73.504;2023-06-22T11:42:20;99202.16;;;15.52;57.79
59487;BME280;45298;54.918;73.504;2023-06-22T11:44:49;99184.69;;;15.30;58.13
59487;BME280;45298;54.918;73.504;2023-06-22T11:47:20;99197.22;;;15.19;58.43
59487;BME280;45298;54.918;73.504;2023-06-22T11:49:49;99180.03;;;14.94;59.00
59487;BME280;45298;54.918;73.504;2023-06-22T11:52:18;99146.47;;;14.62;59.46
59487;BME280;45298;54.918;73.504;2023-06-22T11:54:48;99194.50;;;14.91;60.16
59487;BME280;45298;54.918;73.504;2023-06-22T11:57:17;99186.34;;;14.93;60.82
59487;BME280;45298;54.918;73.504;2023-06-22T11:59:46;99191.28;;;14.88;60.04
59487;BME280;45298;54.918;73.504;2023-06-22T12:02:15;99197.47;;;14.88;59.87
59487;BME280;45298;54.918;73.504;2023-06-22T12:04:45;99190.19;;;14.80;59.95
59487;BME280;45298;54.918;73.504;2023-06-22T12:07:16;99216.81;;;15.10;60.03
59487;BME280;45298;54.918;73.504;2023-06-22T12:09:46;99204.56;;;15.07;59.37
59487;BME280;45298;54.918;73.504;2023-06-22T12:12:14;99207.94;;;15.09;58.56
59487;BME280;45298;54.918;73.504;2023-06-22T12:14:44;99219.25;;;15.31;58.15
59487;BME280;45298;54.918;73.504;2023-06-22T12:17:13;99228.59;;;15.55;58.53
59487;BME280;45298;54.918;73.504;2023-06-22T12:19:42;99210.38;;;15.68;57.85
59487;BME280;45298;54.918;73.504;2023-06-22T12:22:11;99205.97;;;15.77;57.64
59487;BME280;45298;54.918;73.504;2023-06-22T12:24:40;99215.75;;;15.96;57.66
59487;BME280;45298;54.918;73.504;2023-06-22T12:27:09;99213.06;;;15.96;58.03
59487;BME280;45298;54.918;73.504;2023-06-22T12:29:38;99224.53;;;16.07;57.67
59487;BME280;45298;54.918;73.504;2023-06-22T12:32:08;99233.25;;;16.09;58.33
59487;BME280;45298;54.918;73.504;2023-06-22T12:34:37;99236.28;;;15.96;58.45
59487;BME280;45298;54.918;73.504;2023-06-22T12:37:07;99236.94;;;15.70;58.08
59487;BME280;45298;54.918;73.504;2023-06-22T12:39:36;99227.97;;;15.33;59.05
59487;BME280;45298;54.918;73.504;2023-06-22T12:42:05;99183.41;;;14.96;59.15
59487;BME280;45298;54.918;73.504;2023-06-22T12:44:40;99227.78;;;15.07;59.84
59487;BME280;45298;54.918;73.504;2023-06-22T12:47:09;99232.31;;;14.87;60.29
59487;BME280;45298;54.918;73.504;2023-06-22T12:49:39;99254.81;;;14.74;60.48
59487;BME280;45298;54.918;73.504;2023-06-22T12:52:09;99276.41;;;14.51;62.17
59487;BME280;45298;54.918;73.504;2023-06-22T12:54:39;99258.91;;;13.98;64.69
59487;BME280;45298;54.918;73.504;2023-06-22T12:57:21;99212.03;;;13.45;66.70
59487;BME280;45298;54.918;73.504;2023-06-22T12:59:50;99254.75;;;13.65;68.15
59487;BME280;45298;54.918;73.504;2023-06-22T13:02:19;99257.97;;;13.58;69.07
59487;BME280;45298;54.918;73.504;2023-06-22T13:04:48;99252.00;;;13.45;68.93
59487;BME280;45298;54.918;73.504;2023-06-22T13:07:17;99242.91;;;13.26;68.82
59487;BME280;45298;54.918;73.504;2023-06-22T13:09:53;99269.09;;;13.42;69.51
59487;BME280;45298;54.918;73.504;2023-06-22T13:12:22;99270.97;;;13.30;70.15
59487;BME280;45298;54.918;73.504;2023-06-22T13:14:51;99257.50;;;13.22;71.54
59487;BME280;45298;54.918;73.504;2023-06-22T13:17:20;99258.88;;;13.26;71.68
59487;BME280;45298;54.918;73.504;2023-06-22T13:19:50;99254.22;;;13.19;72.71
59487;BME280;45298;54.918;73.504;2023-06-22T13:22:35;99297.34;;;13.34;73.58
59487;BME280;45298;54.918;73.504;2023-06-22T13:25:12;99286.94;;;13.30;73.60
59487;BME280;45298;54.918;73.504;2023-06-22T13:27:42;99279.47;;;13.24;74.38
59487;BME280;45298;54.918;73.504;2023-06-22T13:30:12;99269.47;;;13.17;75.25
59487;BME280;45298;54.918;73.504;2023-06-22T13:32:42;99283.41;;;13.20;75.80
59487;BME280;45298;54.918;73.504;2023-06-22T13:35:12;99277.47;;;13.17;75.89
59487;BME280;45298;54.918;73.504;2023-06-22T13:37:41;99278.06;;;13.20;75.99
59487;BME280;45298;54.918;73.504;2023-06-22T13:40:10;99294.94;;;13.30;77.09
59487;BME280;45298;54.918;73.504;2023-06-22T13:42:39;99276.97;;;13.23;77.02
59487;BME280;45298;54.918;73.504;2023-06-22T13:45:08;99262.53;;;13.25;76.67
59487;BME280;45298;54.918;73.504;2023-06-22T13:47:37;99296.34;;;13.56;76.29
59487;BME280;45298;54.918;73.504;2023-06-22T13:50:07;99271.56;;;13.55;76.65
59487;BME280;45298;54.918;73.504;2023-06-22T13:52:36;99291.81;;;13.78;76.43
59487;BME280;45298;54.918;73.504;2023-06-22T13:55:05;99291.44;;;13.82;76.64
59487;BME280;45298;54.918;73.504;2023-06-22T13:57:35;99272.34;;;13.77;75.93
59487;BME280;45298;54.918;73.504;2023-06-22T14:00:05;99287.50;;;13.86;75.87
59487;BME280;45298;54.918;73.504;2023-06-22T14:02:40;99279.88;;;13.72;74.96
59487;BME280;45298;54.918;73.504;2023-06-22T14:05:10;99268.84;;;13.45;73.38
59487;BME280;45298;54.918;73.504;2023-06-22T14:07:39;99220.63;;;12.96;73.34
59487;BME280;45298;54.918;73.504;2023-06-22T14:10:08;99277.47;;;13.17;72.51
59487;BME280;45298;54.918;73.504;2023-06-22T14:12:38;99257.53;;;12.68;72.58
59487;BME280;45298;54.918;73.504;2023-06-22T14:15:07;99290.81;;;12.95;72.76
59487;BME280;45298;54.918;73.504;2023-06-22T14:17:37;99248.41;;;12.61;72.37
59487;BME280;45298;54.918;73.504;2023-06-22T14:20:06;99292.28;;;12.88;72.63
59487;BME280;45298;54.918;73.504;2023-06-22T14:22:37;99251.41;;;12.57;73.38
59487;BME280;45298;54.918;73.504;2023-06-22T14:25:06;99310.78;;;12.90;73.02
59487;BME280;45298;54.918;73.504;2023-06-22T14:27:35;99303.25;;;12.74;72.73
59487;BME280;45298;54.918;73.504;2023-06-22T14:30:05;99302.03;;;12.66;72.69
59487;BME280;45298;54.918;73.504;2023-06-22T14:32:34;99321.72;;;12.75;72.23
59487;BME280;45298;54.918;73.504;2023-06-22T14:35:04;99323.81;;;12.72;72.87
59487;BME280;45298;54.918;73.504;2023-06-22T14:37:33;99293.53;;;12.51;73.37
59487;BME280;45298;54.918;73.504;2023-06-22T14:40:02;99329.63;;;12.65;73.69
59487;BME280;45298;54.918;73.504;2023-06-22T14:42:31;99306.22;;;12.48;73.56